createdAt,value
2022-12-08T00:14:05.310Z,81
2022-12-08T00:29:05.336Z,81
2022-12-08T00:44:05.341Z,81
2022-12-08T00:59:05.317Z,81
2022-12-08T01:14:05.321Z,81
2022-12-08T01:29:05.308Z,81
2022-12-08T01:44:05.294Z,81
2022-12-08T01:59:05.296Z,82
2022-12-08T02:14:05.255Z,82
2022-12-08T02:29:05.284Z,82
2022-12-08T02:44:05.227Z,82
2022-12-08T02:59:05.263Z,81
2022-12-08T03:14:05.234Z,81
2022-12-08T03:29:05.258Z,81
2022-12-08T03:44:05.190Z,81
2022-12-08T03:59:05.230Z,81
2022-12-08T04:14:05.190Z,81
2022-12-08T04:29:05.233Z,81
2022-12-08T04:44:05.183Z,81
2022-12-08T04:59:05.152Z,81
2022-12-08T05:14:05.142Z,81
2022-12-08T05:29:05.143Z,80
2022-12-08T05:44:05.131Z,81
2022-12-08T05:59:05.152Z,81
2022-12-08T06:14:05.131Z,81
2022-12-08T06:29:05.126Z,81
2022-12-08T06:44:05.116Z,81
2022-12-08T06:59:05.145Z,81
2022-12-08T07:14:05.095Z,81
2022-12-08T07:29:05.137Z,82
2022-12-08T07:44:05.101Z,82
2022-12-08T07:59:05.119Z,83
2022-12-08T08:14:05.075Z,83
2022-12-08T08:29:05.093Z,81
2022-12-08T08:44:05.060Z,81
2022-12-08T08:59:05.111Z,80
2022-12-08T09:14:05.071Z,80
2022-12-08T09:29:05.069Z,80
2022-12-08T09:44:05.055Z,80
2022-12-08T09:59:05.030Z,77
2022-12-08T10:14:05.027Z,73
2022-12-08T10:29:05.019Z,71
2022-12-08T10:44:04.964Z,71
2022-12-08T10:59:04.979Z,72
2022-12-08T11:14:04.944Z,72
2022-12-08T11:44:04.967Z,73
2022-12-08T11:59:04.914Z,73
2022-12-08T12:14:04.916Z,73
2022-12-08T12:29:04.930Z,73
2022-12-08T12:44:04.883Z,72
2022-12-08T12:59:04.879Z,72
2022-12-08T13:14:04.864Z,72
2022-12-08T13:29:04.872Z,73
2022-12-08T13:44:56.777Z,73
2022-12-08T13:59:04.825Z,73
2022-12-08T14:14:04.858Z,73
2022-12-08T14:29:04.903Z,73
2022-12-08T14:44:04.836Z,73
2022-12-08T14:59:04.797Z,74
2022-12-08T15:14:04.799Z,74
2022-12-08T15:29:04.799Z,74
2022-12-08T15:44:04.806Z,75
2022-12-08T15:59:04.769Z,76
2022-12-08T16:14:47.162Z,77
2022-12-08T16:29:04.769Z,77
2022-12-08T16:44:04.712Z,77
2022-12-08T16:59:04.731Z,78
2022-12-08T17:14:04.698Z,78
2022-12-08T17:29:04.723Z,78
2022-12-08T17:44:04.671Z,78
2022-12-08T17:59:04.693Z,79
2022-12-08T18:14:04.661Z,79
2022-12-08T18:29:04.680Z,79
2022-12-08T18:44:04.646Z,79
2022-12-08T18:59:04.641Z,79
2022-12-08T19:14:04.628Z,79
2022-12-08T19:29:04.622Z,79
2022-12-08T19:44:04.603Z,79
2022-12-08T19:59:04.589Z,79
2022-12-08T20:14:04.585Z,80
2022-12-08T20:44:04.557Z,80
2022-12-08T20:59:04.630Z,80
2022-12-08T21:14:04.584Z,81
2022-12-08T21:29:04.596Z,82
2022-12-08T21:44:04.547Z,84
2022-12-08T21:59:04.609Z,85
2022-12-08T22:14:08.268Z,86
2022-12-08T22:29:04.520Z,87
2022-12-08T22:44:04.495Z,87
2022-12-08T22:59:04.513Z,88
2022-12-08T23:14:04.476Z,89
2022-12-08T23:29:04.555Z,90
2022-12-08T23:44:04.652Z,90
2022-12-08T23:59:04.664Z,91
